createdAt,value
2023-03-26T00:01:16.011Z,71.64
2023-03-26T00:03:43.759Z,71.27
2023-03-26T00:06:13.212Z,70.84
2023-03-26T00:08:41.887Z,71.59
2023-03-26T00:11:11.216Z,71.17
2023-03-26T00:13:38.300Z,71.20
2023-03-26T00:16:05.558Z,71.27
2023-03-26T00:18:32.218Z,69.54
2023-03-26T00:21:00.547Z,70.29
2023-03-26T00:23:28.585Z,69.30
2023-03-26T00:25:55.878Z,69.38
2023-03-26T00:28:24.018Z,69.62
2023-03-26T00:30:58.152Z,70.12
2023-03-26T00:33:24.714Z,69.74
2023-03-26T00:35:57.876Z,71.53
2023-03-26T00:38:25.776Z,70.33
2023-03-26T00:40:53.201Z,71.62
2023-03-26T00:43:21.612Z,71.58
2023-03-26T00:45:53.824Z,71.10
2023-03-26T00:48:28.930Z,69.78
2023-03-26T00:51:00.992Z,71.35
2023-03-26T00:53:27.578Z,71.70
2023-03-26T00:55:54.355Z,71.21
2023-03-26T00:58:21.028Z,70.68
2023-03-26T01:00:59.893Z,71.93
2023-03-26T01:03:28.575Z,71.69
2023-03-26T01:06:09.035Z,71.85
2023-03-26T01:08:44.819Z,70.55
2023-03-26T01:11:17.954Z,70.59
2023-03-26T01:13:54.008Z,71.42
2023-03-26T01:16:36.714Z,71.68
2023-03-26T01:19:12.125Z,72.11
2023-03-26T01:21:38.956Z,71.55
2023-03-26T01:24:08.001Z,70.86
2023-03-26T01:26:44.080Z,71.04
2023-03-26T01:29:24.274Z,71.32
2023-03-26T01:32:03.268Z,70.78
2023-03-26T01:35:09.177Z,71.01
2023-03-26T01:37:57.583Z,71.82
2023-03-26T01:40:45.871Z,72.00
2023-03-26T01:43:18.338Z,71.11
2023-03-26T01:45:47.769Z,72.17
2023-03-26T01:48:14.380Z,71.51
2023-03-26T01:50:41.131Z,71.84
2023-03-26T01:53:09.808Z,71.79
2023-03-26T01:55:56.848Z,72.43
2023-03-26T01:58:35.116Z,72.68
2023-03-26T02:01:07.646Z,71.32
2023-03-26T02:03:46.825Z,72.12
2023-03-26T02:06:34.477Z,71.60
2023-03-26T02:09:06.604Z,72.95
2023-03-26T02:11:35.931Z,71.93
2023-03-26T02:14:04.719Z,72.69
2023-03-26T02:16:31.506Z,72.27
2023-03-26T02:18:58.181Z,73.54
2023-03-26T02:21:25.765Z,73.01
2023-03-26T02:23:55.658Z,73.19
2023-03-26T02:26:22.373Z,73.86
2023-03-26T02:28:48.918Z,74.08
2023-03-26T02:31:15.457Z,74.42
2023-03-26T02:33:42.241Z,73.79
2023-03-26T02:36:09.194Z,72.84
2023-03-26T02:38:35.978Z,72.84
2023-03-26T02:41:02.861Z,73.89
2023-03-26T02:43:29.573Z,73.70
2023-03-26T02:45:57.064Z,73.65
2023-03-26T02:48:24.153Z,74.21
2023-03-26T02:50:50.875Z,74.66
2023-03-26T02:53:17.434Z,73.42
2023-03-26T02:55:43.989Z,73.82
2023-03-26T02:58:13.641Z,74.38
2023-03-26T03:00:40.180Z,74.78
2023-03-26T03:03:07.005Z,74.82
2023-03-26T03:05:34.303Z,73.74
2023-03-26T03:08:00.912Z,74.20
2023-03-26T03:10:28.437Z,75.19
2023-03-26T03:12:55.122Z,74.41
2023-03-26T03:15:21.731Z,73.95
2023-03-26T03:17:48.282Z,74.14
2023-03-26T03:20:15.012Z,74.32
2023-03-26T03:22:41.545Z,74.05
2023-03-26T03:25:08.799Z,74.66
2023-03-26T03:27:36.119Z,74.40
2023-03-26T03:30:02.684Z,73.76
2023-03-26T03:32:29.285Z,73.52
2023-03-26T03:34:55.898Z,74.54
2023-03-26T03:37:22.448Z,73.35
2023-03-26T03:39:49.122Z,74.40
2023-03-26T03:42:15.693Z,73.22
2023-03-26T03:44:42.316Z,74.39
2023-03-26T03:47:08.878Z,74.06
2023-03-26T03:49:35.491Z,74.24
2023-03-26T03:52:02.043Z,73.88
2023-03-26T03:54:28.561Z,74.35
2023-03-26T03:56:55.142Z,73.09
2023-03-26T03:59:21.748Z,73.71
2023-03-26T04:01:48.300Z,73.77
2023-03-26T04:04:14.861Z,72.76
2023-03-26T04:06:41.366Z,73.40
2023-03-26T04:09:08.042Z,73.29
2023-03-26T04:11:34.545Z,73.38
2023-03-26T04:14:01.099Z,73.00
2023-03-26T04:16:27.802Z,74.00
2023-03-26T04:18:54.462Z,73.79
2023-03-26T04:21:20.950Z,73.51
2023-03-26T04:23:47.523Z,73.22
2023-03-26T04:26:17.376Z,73.80
2023-03-26T04:28:50.553Z,74.08
2023-03-26T04:31:20.633Z,73.18
2023-03-26T04:33:47.835Z,73.45
2023-03-26T04:36:16.253Z,72.61
2023-03-26T04:38:46.674Z,73.17
2023-03-26T04:41:14.128Z,73.64
2023-03-26T04:43:41.295Z,73.46
2023-03-26T04:46:09.254Z,72.85
2023-03-26T04:48:36.143Z,73.21
2023-03-26T04:51:02.799Z,71.58
2023-03-26T04:53:29.376Z,72.29
2023-03-26T04:56:00.162Z,71.48
2023-03-26T04:58:27.041Z,71.70
2023-03-26T05:00:53.648Z,70.14
2023-03-26T05:03:20.229Z,71.34
2023-03-26T05:05:46.862Z,69.43
2023-03-26T05:08:13.382Z,69.22
2023-03-26T05:10:40.008Z,67.61
2023-03-26T05:13:06.557Z,67.86
2023-03-26T05:15:33.161Z,67.23
2023-03-26T05:17:59.817Z,66.74
2023-03-26T05:20:28.546Z,65.18
2023-03-26T05:22:55.161Z,66.15
2023-03-26T05:25:22.616Z,64.76
2023-03-26T05:27:49.473Z,64.02
2023-03-26T05:30:18.320Z,63.89
2023-03-26T05:32:46.010Z,62.17
2023-03-26T05:35:12.762Z,62.29
2023-03-26T05:37:39.947Z,61.40
2023-03-26T05:40:08.056Z,60.75
2023-03-26T05:42:34.647Z,59.26
2023-03-26T05:45:01.174Z,58.88
2023-03-26T05:47:27.723Z,58.05
2023-03-26T05:49:54.343Z,55.54
2023-03-26T05:52:21.023Z,55.04
2023-03-26T05:54:47.582Z,54.87
2023-03-26T05:57:14.322Z,54.82
2023-03-26T05:59:41.004Z,53.54
2023-03-26T06:02:09.421Z,52.09
2023-03-26T06:04:36.159Z,52.47
2023-03-26T06:07:02.799Z,52.04
2023-03-26T06:09:29.375Z,50.96
2023-03-26T06:11:56.010Z,50.35
2023-03-26T06:14:22.713Z,49.86
2023-03-26T06:16:49.360Z,51.07
2023-03-26T06:19:15.907Z,49.09
2023-03-26T06:21:42.440Z,47.56
2023-03-26T06:24:09.020Z,48.36
2023-03-26T06:26:35.549Z,48.07
2023-03-26T06:29:02.130Z,47.83
2023-03-26T06:31:28.707Z,46.89
2023-03-26T06:33:55.413Z,46.13
2023-03-26T06:36:21.985Z,46.30
2023-03-26T06:38:48.576Z,45.58
2023-03-26T06:41:15.140Z,44.85
2023-03-26T06:43:41.828Z,45.24
2023-03-26T06:46:09.169Z,45.63
2023-03-26T06:48:37.315Z,43.05
2023-03-26T06:51:04.093Z,44.05
2023-03-26T06:53:30.693Z,43.21
2023-03-26T06:55:57.326Z,42.73
2023-03-26T06:58:24.060Z,42.57
2023-03-26T07:00:54.186Z,40.78
2023-03-26T07:03:21.248Z,40.70
2023-03-26T07:05:48.206Z,42.16
2023-03-26T07:08:14.969Z,40.49
2023-03-26T07:10:42.136Z,39.33
2023-03-26T07:13:08.814Z,40.00
2023-03-26T07:15:35.416Z,38.83
2023-03-26T07:18:01.971Z,38.25
2023-03-26T07:20:29.072Z,39.10
2023-03-26T07:22:56.125Z,38.35
2023-03-26T07:25:22.911Z,38.28
2023-03-26T07:27:58.637Z,37.84
2023-03-26T07:30:46.960Z,36.59
2023-03-26T07:33:25.915Z,37.50
2023-03-26T07:36:00.742Z,37.39
2023-03-26T07:38:36.427Z,36.49
2023-03-26T07:41:21.154Z,35.96
2023-03-26T07:43:55.796Z,35.83
2023-03-26T07:46:29.213Z,36.36
2023-03-26T07:48:56.138Z,36.99
2023-03-26T07:51:22.978Z,35.90
2023-03-26T07:53:49.982Z,35.87
2023-03-26T07:56:17.653Z,36.05
2023-03-26T07:58:59.409Z,35.31
2023-03-26T08:02:03.192Z,35.39
2023-03-26T08:04:46.020Z,33.39
2023-03-26T08:07:21.581Z,32.57
2023-03-26T08:10:13.290Z,30.89
2023-03-26T08:13:06.148Z,32.04
2023-03-26T08:15:44.234Z,32.82
2023-03-26T08:18:10.792Z,33.41
2023-03-26T08:20:51.179Z,34.40
2023-03-26T08:23:31.965Z,34.41
2023-03-26T08:26:08.216Z,33.43
2023-03-26T08:28:53.512Z,34.23
2023-03-26T08:31:28.742Z,34.79
2023-03-26T08:33:55.601Z,34.82
2023-03-26T08:36:22.128Z,34.04
2023-03-26T08:38:48.681Z,33.57
2023-03-26T08:41:17.988Z,31.98
2023-03-26T08:44:12.335Z,31.08
2023-03-26T08:46:44.768Z,29.96
2023-03-26T08:49:45.070Z,30.59
2023-03-26T08:52:14.337Z,31.84
2023-03-26T08:55:21.885Z,33.11
2023-03-26T08:58:03.853Z,32.49
2023-03-26T09:00:48.710Z,32.48
2023-03-26T09:04:19.906Z,30.31
2023-03-26T09:07:26.493Z,28.17
2023-03-26T09:10:34.976Z,27.12
2023-03-26T09:13:07.580Z,26.62
2023-03-26T09:15:43.761Z,27.27
2023-03-26T09:18:43.743Z,24.39
2023-03-26T09:21:21.022Z,22.31
2023-03-26T09:24:15.377Z,23.29
2023-03-26T09:27:05.994Z,21.20
2023-03-26T09:29:41.642Z,21.14
2023-03-26T09:32:45.217Z,20.13
2023-03-26T09:35:25.986Z,17.62
2023-03-26T09:38:18.038Z,18.71
2023-03-26T09:40:55.952Z,18.80
2023-03-26T09:43:44.431Z,17.58
2023-03-26T09:46:26.072Z,17.09
2023-03-26T09:49:13.815Z,16.29
2023-03-26T09:51:58.398Z,19.13
2023-03-26T09:54:46.138Z,18.01
2023-03-26T09:57:29.255Z,18.54
2023-03-26T10:00:14.042Z,19.50
2023-03-26T10:02:54.255Z,18.90
2023-03-26T10:05:54.890Z,17.88
2023-03-26T10:08:32.222Z,18.28
2023-03-26T10:11:05.352Z,18.10
2023-03-26T10:13:56.374Z,21.28
2023-03-26T10:16:48.861Z,22.03
2023-03-26T10:19:24.470Z,19.66
2023-03-26T10:22:06.766Z,21.08
2023-03-26T10:24:39.750Z,22.68
2023-03-26T10:27:24.316Z,24.44
2023-03-26T10:30:13.169Z,26.05
2023-03-26T10:33:17.142Z,27.99
2023-03-26T10:36:05.647Z,29.97
2023-03-26T10:38:50.285Z,30.65
2023-03-26T10:41:35.690Z,33.22
2023-03-26T10:44:22.624Z,32.89
2023-03-26T10:47:32.782Z,32.72
2023-03-26T10:50:40.903Z,31.00
2023-03-26T10:53:11.495Z,31.26
2023-03-26T10:55:42.466Z,29.93
2023-03-26T10:58:18.795Z,32.48
2023-03-26T11:01:14.670Z,32.24
2023-03-26T11:03:52.988Z,33.30
2023-03-26T11:06:36.993Z,31.88
2023-03-26T11:09:10.596Z,33.51
2023-03-26T11:11:40.190Z,33.72
2023-03-26T11:14:34.460Z,33.94
2023-03-26T11:17:04.593Z,34.26
2023-03-26T11:19:54.252Z,33.54
2023-03-26T11:22:36.962Z,32.67
2023-03-26T11:25:26.842Z,32.92
2023-03-26T11:28:15.278Z,32.96
2023-03-26T11:31:04.702Z,33.26
2023-03-26T11:33:37.305Z,34.75
2023-03-26T11:36:16.979Z,32.80
2023-03-26T11:38:49.915Z,33.29
2023-03-26T11:41:23.579Z,33.17
2023-03-26T11:44:00.914Z,32.14
2023-03-26T11:46:27.690Z,32.75
2023-03-26T11:49:08.321Z,33.36
2023-03-26T11:51:37.642Z,33.47
2023-03-26T11:54:06.448Z,32.41
2023-03-26T11:57:04.637Z,32.59
2023-03-26T11:59:48.919Z,32.33
2023-03-26T12:02:30.244Z,33.34
2023-03-26T12:05:18.535Z,32.34
2023-03-26T12:08:00.160Z,33.98
2023-03-26T12:10:41.583Z,35.08
2023-03-26T12:13:26.806Z,34.71
2023-03-26T12:15:58.815Z,33.18
2023-03-26T12:18:27.776Z,34.54
2023-03-26T12:21:15.289Z,34.53
2023-03-26T12:23:56.854Z,35.45
2023-03-26T12:26:39.423Z,35.52
2023-03-26T12:29:12.523Z,36.15
2023-03-26T12:32:09.734Z,35.96
2023-03-26T12:34:38.507Z,35.21
2023-03-26T12:37:06.772Z,36.37
2023-03-26T12:40:10.777Z,35.38
2023-03-26T12:44:51.384Z,35.83
2023-03-26T12:45:19.865Z,35.18
2023-03-26T12:47:58.982Z,35.47
2023-03-26T12:50:40.346Z,34.41
2023-03-26T12:53:32.902Z,35.56
2023-03-26T12:56:05.202Z,34.08
2023-03-26T12:58:41.798Z,34.50
2023-03-26T13:01:24.175Z,34.55
2023-03-26T13:04:07.588Z,34.69
2023-03-26T13:06:59.057Z,34.48
2023-03-26T13:09:28.636Z,34.89
2023-03-26T13:12:26.802Z,35.50
2023-03-26T13:15:05.272Z,36.01
2023-03-26T13:17:41.614Z,36.92
2023-03-26T13:20:26.944Z,36.69
2023-03-26T13:23:24.344Z,36.44
2023-03-26T13:26:11.019Z,37.78
2023-03-26T13:29:00.846Z,38.02
2023-03-26T13:31:46.859Z,37.32
2023-03-26T13:34:44.577Z,37.39
2023-03-26T13:37:18.932Z,36.94
2023-03-26T13:40:35.242Z,36.91
2023-03-26T13:43:01.814Z,37.25
2023-03-26T13:45:48.278Z,37.36
2023-03-26T13:48:20.190Z,35.81
2023-03-26T13:50:57.925Z,35.64
2023-03-26T13:53:31.926Z,36.87
2023-03-26T13:56:00.459Z,36.55
2023-03-26T13:58:36.291Z,36.44
2023-03-26T14:01:10.697Z,36.58
2023-03-26T14:03:43.450Z,36.95
2023-03-26T14:06:28.071Z,36.90
2023-03-26T14:09:04.919Z,36.62
2023-03-26T14:11:40.368Z,36.05
2023-03-26T14:14:13.146Z,37.14
2023-03-26T14:16:48.311Z,37.19
2023-03-26T14:20:05.532Z,36.80
2023-03-26T14:22:50.396Z,37.39
2023-03-26T14:25:31.603Z,36.97
2023-03-26T14:28:25.717Z,36.48
2023-03-26T14:30:54.999Z,36.61
2023-03-26T14:33:47.465Z,36.00
2023-03-26T14:36:45.917Z,35.87
2023-03-26T14:39:43.191Z,36.39
2023-03-26T14:42:24.802Z,37.19
2023-03-26T14:45:26.693Z,37.40
2023-03-26T14:48:09.930Z,36.67
2023-03-26T14:50:51.303Z,35.87
2023-03-26T14:53:41.497Z,36.58
2023-03-26T14:56:26.086Z,36.40
2023-03-26T14:59:12.841Z,36.73
2023-03-26T15:02:16.165Z,36.30
2023-03-26T15:05:20.280Z,36.24
2023-03-26T15:08:35.240Z,35.78
2023-03-26T15:11:04.726Z,36.25
2023-03-26T15:14:03.770Z,37.29
2023-03-26T15:16:51.801Z,36.15
2023-03-26T15:19:36.857Z,37.05
2023-03-26T15:22:20.741Z,36.86
2023-03-26T15:25:11.914Z,37.74
2023-03-26T15:27:56.883Z,37.10
2023-03-26T15:30:42.082Z,38.01
2023-03-26T15:33:30.078Z,38.51
2023-03-26T15:36:28.897Z,37.69
2023-03-26T15:39:26.474Z,39.17
2023-03-26T15:42:26.523Z,38.49
2023-03-26T15:44:59.198Z,39.32
2023-03-26T15:47:51.149Z,38.85
2023-03-26T15:50:24.052Z,39.45
2023-03-26T15:53:28.040Z,38.45
2023-03-26T15:56:00.362Z,39.14
2023-03-26T15:58:34.816Z,40.00
2023-03-26T16:02:05.788Z,38.92
2023-03-26T16:04:52.864Z,39.69
2023-03-26T16:08:00.377Z,40.36
2023-03-26T16:10:39.330Z,39.83
2023-03-26T16:13:17.668Z,39.37
2023-03-26T16:15:53.526Z,39.50
2023-03-26T16:18:30.676Z,39.78
2023-03-26T16:21:30.564Z,40.85
2023-03-26T16:24:02.390Z,40.51
2023-03-26T16:26:54.351Z,41.31
2023-03-26T16:29:26.539Z,41.19
2023-03-26T16:32:25.251Z,41.74
2023-03-26T16:34:56.749Z,41.50
2023-03-26T16:37:32.567Z,42.31
2023-03-26T16:40:17.512Z,42.64
2023-03-26T16:43:06.106Z,43.29
2023-03-26T16:46:00.413Z,42.91
2023-03-26T16:48:45.691Z,43.05
2023-03-26T16:51:33.649Z,44.78
2023-03-26T16:54:16.179Z,44.62
2023-03-26T16:56:50.824Z,44.44
2023-03-26T17:00:06.592Z,45.76
2023-03-26T17:03:09.845Z,46.83
2023-03-26T17:05:38.099Z,45.94
2023-03-26T17:08:43.313Z,45.69
2023-03-26T17:11:26.671Z,46.81
2023-03-26T17:14:19.295Z,47.38
2023-03-26T17:17:04.050Z,47.01
2023-03-26T17:19:46.543Z,48.08
2023-03-26T17:22:34.931Z,48.61
2023-03-26T17:25:36.709Z,47.76
2023-03-26T17:28:25.318Z,47.38
2023-03-26T17:31:15.396Z,47.84
2023-03-26T17:33:42.399Z,47.82
2023-03-26T17:36:12.013Z,47.87
2023-03-26T17:38:38.526Z,47.51
2023-03-26T17:41:09.044Z,48.02
2023-03-26T17:43:51.660Z,47.59
2023-03-26T17:46:42.284Z,47.75
2023-03-26T17:49:19.083Z,48.06
2023-03-26T17:52:12.168Z,48.29
2023-03-26T17:54:46.021Z,48.07
2023-03-26T17:57:24.389Z,48.29
2023-03-26T17:59:56.633Z,47.82
2023-03-26T18:02:34.522Z,48.99
2023-03-26T18:05:03.678Z,48.91
2023-03-26T18:07:36.128Z,49.02
2023-03-26T18:10:11.329Z,49.34
2023-03-26T18:13:11.800Z,49.48
2023-03-26T18:15:43.169Z,49.40
2023-03-26T18:18:11.568Z,48.82
2023-03-26T18:20:38.707Z,49.42
2023-03-26T18:23:20.995Z,50.12
2023-03-26T18:25:55.846Z,49.82
2023-03-26T18:28:30.350Z,50.01
2023-03-26T18:31:08.387Z,49.89
2023-03-26T18:33:43.977Z,49.96
2023-03-26T18:36:11.593Z,49.88
2023-03-26T18:38:39.487Z,50.07
2023-03-26T18:41:15.015Z,50.60
2023-03-26T18:43:44.453Z,50.55
2023-03-26T18:46:13.808Z,50.89
2023-03-26T18:48:41.033Z,50.97
2023-03-26T18:51:08.183Z,50.44
2023-03-26T18:53:47.519Z,51.25
2023-03-26T18:56:35.551Z,52.01
2023-03-26T18:59:04.716Z,52.02
2023-03-26T19:01:34.610Z,51.31
2023-03-26T19:04:04.885Z,51.66
2023-03-26T19:06:33.580Z,52.32
2023-03-26T19:09:00.264Z,52.34
2023-03-26T19:11:28.406Z,52.31
2023-03-26T19:14:07.728Z,52.68
2023-03-26T19:16:35.484Z,52.50
2023-03-26T19:19:07.758Z,52.43
2023-03-26T19:21:35.762Z,53.01
2023-03-26T19:24:04.349Z,52.65
2023-03-26T19:26:31.261Z,52.84
2023-03-26T19:28:58.554Z,52.94
2023-03-26T19:31:31.939Z,54.08
2023-03-26T19:34:01.699Z,53.21
2023-03-26T19:36:33.072Z,53.11
2023-03-26T19:38:59.542Z,54.65
2023-03-26T19:41:38.172Z,53.81
2023-03-26T19:44:26.264Z,54.48
2023-03-26T19:47:01.016Z,54.29
2023-03-26T19:49:31.675Z,54.49
2023-03-26T19:52:16.602Z,55.86
2023-03-26T19:54:59.940Z,56.20
2023-03-26T19:57:32.288Z,56.51
2023-03-26T19:59:59.741Z,56.61
2023-03-26T20:02:27.339Z,56.20
2023-03-26T20:04:54.282Z,56.63
2023-03-26T20:07:22.535Z,56.94
2023-03-26T20:10:03.438Z,55.54
2023-03-26T20:12:29.977Z,56.95
2023-03-26T20:14:57.107Z,56.63
2023-03-26T20:17:23.677Z,56.44
2023-03-26T20:19:50.257Z,58.16
2023-03-26T20:22:19.179Z,58.16
2023-03-26T20:24:46.417Z,58.19
2023-03-26T20:27:13.671Z,58.23
2023-03-26T20:29:41.297Z,58.85
2023-03-26T20:32:26.491Z,58.52
2023-03-26T20:34:53.845Z,57.79
2023-03-26T20:37:20.608Z,58.20
2023-03-26T20:39:47.115Z,59.91
2023-03-26T20:42:15.820Z,59.37
2023-03-26T20:44:42.920Z,59.79
2023-03-26T20:47:12.429Z,60.39
2023-03-26T20:49:39.023Z,59.18
2023-03-26T20:52:06.020Z,60.35
2023-03-26T20:54:32.755Z,60.20
2023-03-26T20:56:59.432Z,60.27
2023-03-26T20:59:27.261Z,60.47
2023-03-26T21:01:55.533Z,60.21
2023-03-26T21:04:23.101Z,59.99
2023-03-26T21:06:49.679Z,60.47
2023-03-26T21:09:19.444Z,60.56
2023-03-26T21:12:04.753Z,60.85
2023-03-26T21:14:33.818Z,60.97
2023-03-26T21:17:01.632Z,60.52
2023-03-26T21:19:28.520Z,61.44
2023-03-26T21:22:13.622Z,60.97
2023-03-26T21:24:47.982Z,60.02
2023-03-26T21:27:17.198Z,61.16
2023-03-26T21:29:44.021Z,60.47
2023-03-26T21:32:11.550Z,60.20
2023-03-26T21:34:42.068Z,62.20
2023-03-26T21:37:15.202Z,60.91
2023-03-26T21:39:42.056Z,61.71
2023-03-26T21:42:10.535Z,61.18
2023-03-26T21:44:37.592Z,60.36
2023-03-26T21:47:05.273Z,60.27
2023-03-26T21:49:32.838Z,60.42
2023-03-26T21:51:59.592Z,61.00
2023-03-26T21:54:31.206Z,60.78
2023-03-26T21:57:21.928Z,61.32
2023-03-26T22:00:14.094Z,60.23
2023-03-26T22:02:52.802Z,60.27
2023-03-26T22:05:25.144Z,61.33
2023-03-26T22:07:56.927Z,61.22
2023-03-26T22:10:23.602Z,60.59
2023-03-26T22:12:50.793Z,61.31
2023-03-26T22:15:17.587Z,61.65
2023-03-26T22:17:44.705Z,61.50
2023-03-26T22:20:13.682Z,61.42
2023-03-26T22:22:41.889Z,60.60
2023-03-26T22:25:09.072Z,61.28
2023-03-26T22:27:44.098Z,60.18
2023-03-26T22:30:12.589Z,60.92
2023-03-26T22:32:39.590Z,61.13
2023-03-26T22:35:06.807Z,60.53
2023-03-26T22:37:33.802Z,60.94
2023-03-26T22:40:00.389Z,61.17
2023-03-26T22:42:27.276Z,60.22
2023-03-26T22:44:54.128Z,61.87
2023-03-26T22:47:20.771Z,61.29
2023-03-26T22:49:47.455Z,61.08
2023-03-26T22:52:14.007Z,60.85
2023-03-26T22:54:40.546Z,60.27
2023-03-26T22:57:07.191Z,61.10
2023-03-26T22:59:33.724Z,60.59
2023-03-26T23:02:00.332Z,60.28
2023-03-26T23:04:31.637Z,60.03
2023-03-26T23:06:58.900Z,61.17
2023-03-26T23:09:25.592Z,60.90
2023-03-26T23:11:52.153Z,60.51
2023-03-26T23:14:18.760Z,59.69
2023-03-26T23:16:45.382Z,59.45
2023-03-26T23:19:12.382Z,60.14
2023-03-26T23:21:39.214Z,59.06
2023-03-26T23:24:06.085Z,60.31
2023-03-26T23:26:37.737Z,59.09
2023-03-26T23:29:10.821Z,59.23
2023-03-26T23:31:37.433Z,59.42
2023-03-26T23:34:03.994Z,58.81
2023-03-26T23:36:30.621Z,60.15
2023-03-26T23:38:57.245Z,60.23
2023-03-26T23:41:23.922Z,59.33
2023-03-26T23:43:53.355Z,59.73
2023-03-26T23:46:22.982Z,59.08
2023-03-26T23:48:50.149Z,59.91
2023-03-26T23:51:20.890Z,58.65
2023-03-26T23:53:48.298Z,58.61
2023-03-26T23:56:15.228Z,58.42
2023-03-26T23:58:42.429Z,58.79
